Time;durP1;ratioP1;P1;durP2;ratioP2;P2;SDS_P1;SDS_P2;PMS_P1;PMS_P2;Temp;Humidity;BMP_temperature;BMP_pressure;BME280_temperature;BME280_humidity;BME280_pressure;Samples;Min_cycle;Max_cycle;Signal;HPM_P1;HPM_P2
2023/10/20 00:01:29;;;;;;;12.38;3.95;;;16.00;80.30;;;;;;5015797;28;20038;-80
2023/10/20 00:03:54;;;;;;;11.10;2.97;;;15.90;80.10;;;;;;5017387;28;20048;-81
2023/10/20 00:06:20;;;;;;;10.43;2.63;;;16.00;80.30;;;;;;5019310;28;20026;-80
2023/10/20 00:08:47;;;;;;;11.00;2.83;;;16.00;80.40;;;;;;5016911;28;20125;-80
2023/10/20 00:11:13;;;;;;;7.32;2.80;;;16.00;80.40;;;;;;5016853;28;20517;-79
2023/10/20 00:13:39;;;;;;;10.77;2.97;;;16.00;80.40;;;;;;5019367;28;20034;-79
2023/10/20 00:16:05;;;;;;;12.40;3.40;;;16.00;80.50;;;;;;5018588;28;20032;-79
2023/10/20 00:18:31;;;;;;;8.85;3.33;;;16.00;80.50;;;;;;5003104;28;20104;-79
2023/10/20 00:20:57;;;;;;;10.07;2.80;;;16.00;80.50;;;;;;5000177;28;20539;-78
2023/10/20 00:23:24;;;;;;;8.63;3.72;;;16.00;80.60;;;;;;5003182;28;20041;-79
2023/10/20 00:25:49;;;;;;;7.97;3.22;;;16.00;80.60;;;;;;5015443;28;20052;-79
2023/10/20 00:28:15;;;;;;;9.30;2.90;;;16.00;80.70;;;;;;5022435;28;20025;-81
2023/10/20 00:30:41;;;;;;;9.48;4.28;;;16.00;80.70;;;;;;5016268;28;20376;-80
2023/10/20 00:33:07;;;;;;;11.10;2.38;;;16.00;80.70;;;;;;5017527;28;20160;-80
2023/10/20 00:35:34;;;;;;;10.95;3.38;;;16.00;80.70;;;;;;5018722;28;20041;-80
2023/10/20 00:38:01;;;;;;;6.22;1.98;;;16.00;80.80;;;;;;5011719;28;20045;-80
2023/10/20 00:40:27;;;;;;;6.07;2.05;;;16.00;80.80;;;;;;5011050;28;20037;-80
2023/10/20 00:42:54;;;;;;;8.85;2.25;;;16.00;80.80;;;;;;5021731;28;20035;-79
2023/10/20 00:45:21;;;;;;;6.43;2.28;;;16.00;80.80;;;;;;5002413;28;20121;-79
2023/10/20 00:47:47;;;;;;;6.47;2.22;;;16.00;80.80;;;;;;4999858;28;20022;-79
2023/10/20 00:50:14;;;;;;;8.80;2.22;;;16.00;80.80;;;;;;5045668;28;20468;-80
2023/10/20 00:52:49;;;;;;;7.53;2.28;;;16.00;80.80;;;;;;5018400;28;20030;-79
2023/10/20 00:55:15;;;;;;;6.95;2.28;;;16.00;80.90;;;;;;5013574;28;20410;-80
2023/10/20 00:57:45;;;;;;;13.18;3.72;;;16.10;81.00;;;;;;5009955;28;20045;-80
2023/10/20 01:00:13;;;;;;;6.22;1.85;;;16.00;80.90;;;;;;5009151;28;20044;-80
2023/10/20 01:02:41;;;;;;;8.45;2.65;;;16.00;80.90;;;;;;5015173;28;20056;-80
2023/10/20 01:05:08;;;;;;;7.43;2.90;;;16.00;80.90;;;;;;5010201;28;20339;-80
2023/10/20 01:07:35;;;;;;;5.80;2.20;;;16.00;80.90;;;;;;5011891;28;20034;-80
2023/10/20 01:10:05;;;;;;;6.20;1.70;;;16.00;81.00;;;;;;5013929;28;20041;-80
2023/10/20 01:12:32;;;;;;;5.25;1.80;;;16.00;81.00;;;;;;4994194;28;20201;-80
2023/10/20 01:15:01;;;;;;;6.80;3.20;;;16.00;81.00;;;;;;5019560;28;20037;-79
2023/10/20 01:17:28;;;;;;;8.60;2.42;;;16.00;81.50;;;;;;5006039;28;20517;-79
2023/10/20 01:19:55;;;;;;;5.47;1.90;;;16.00;81.00;;;;;;5017400;28;20563;-79
2023/10/20 01:22:23;;;;;;;7.20;2.30;;;16.00;81.00;;;;;;5025431;28;20195;-79
2023/10/20 01:24:49;;;;;;;9.07;2.92;;;16.00;81.10;;;;;;5018693;28;20072;-79
2023/10/20 01:27:16;;;;;;;6.10;1.98;;;16.00;81.10;;;;;;5010562;28;20123;-79
2023/10/20 01:29:42;;;;;;;5.53;2.20;;;16.00;81.10;;;;;;5013396;28;20570;-79
2023/10/20 01:32:08;;;;;;;3.80;1.83;;;16.00;81.10;;;;;;5024626;28;20041;-79
2023/10/20 01:34:35;;;;;;;6.00;2.30;;;16.00;81.20;;;;;;5009441;28;20223;-79
2023/10/20 01:37:02;;;;;;;6.30;2.13;;;16.00;81.20;;;;;;5023825;28;20364;-78
2023/10/20 01:39:29;;;;;;;6.43;2.90;;;16.00;81.30;;;;;;5009968;28;20049;-80
2023/10/20 01:41:56;;;;;;;5.45;2.15;;;16.00;81.30;;;;;;5000273;28;20103;-80
2023/10/20 01:44:22;;;;;;;6.57;2.28;;;16.00;81.30;;;;;;5011812;28;20029;-80
2023/10/20 01:46:51;;;;;;;7.13;2.53;;;16.00;81.30;;;;;;5009599;28;20744;-80
2023/10/20 01:49:20;;;;;;;7.93;2.42;;;16.00;81.30;;;;;;5002866;28;20124;-80
2023/10/20 01:51:46;;;;;;;6.07;2.72;;;16.00;81.30;;;;;;5019308;28;20277;-81
2023/10/20 01:54:13;;;;;;;6.03;2.88;;;16.00;81.30;;;;;;5017869;28;20392;-80
2023/10/20 01:56:39;;;;;;;4.55;2.28;;;16.00;81.40;;;;;;5018892;28;20029;-80
2023/10/20 01:59:09;;;;;;;6.20;2.20;;;16.00;81.30;;;;;;4994194;28;20842;-80
2023/10/20 02:01:36;;;;;;;5.95;2.58;;;16.00;81.30;;;;;;5013314;28;20481;-80
2023/10/20 02:04:02;;;;;;;8.20;2.30;;;16.00;81.30;;;;;;5019432;28;20068;-80
2023/10/20 02:06:29;;;;;;;4.15;2.05;;;16.00;81.40;;;;;;5017369;28;20410;-79
2023/10/20 02:08:55;;;;;;;7.10;2.40;;;16.00;81.40;;;;;;5021466;28;20119;-80
2023/10/20 02:11:21;;;;;;;8.48;2.20;;;16.00;81.40;;;;;;5026445;28;20040;-80
2023/10/20 02:13:47;;;;;;;4.18;2.67;;;16.00;81.40;;;;;;5024328;28;20026;-80
2023/10/20 02:16:13;;;;;;;6.25;1.88;;;16.00;81.40;;;;;;5025165;28;20320;-80
2023/10/20 02:18:40;;;;;;;5.50;2.15;;;16.00;81.40;;;;;;5007612;28;20064;-81
2023/10/20 02:21:07;;;;;;;7.35;2.42;;;16.00;81.40;;;;;;5027459;28;20048;-81
2023/10/20 02:23:35;;;;;;;6.53;3.08;;;16.00;81.50;;;;;;5018182;28;20044;-81
2023/10/20 02:26:06;;;;;;;7.88;3.10;;;16.00;81.50;;;;;;5023604;28;20104;-80
2023/10/20 02:28:34;;;;;;;6.05;2.08;;;16.00;81.50;;;;;;5024052;28;20037;-80
2023/10/20 02:31:01;;;;;;;8.23;2.42;;;16.00;82.00;;;;;;5006116;28;20097;-80
2023/10/20 02:33:28;;;;;;;9.32;2.45;;;16.00;81.60;;;;;;5002072;28;20041;-80
2023/10/20 02:35:54;;;;;;;7.00;2.25;;;15.90;81.40;;;;;;5005429;28;20048;-80
2023/10/20 02:38:21;;;;;;;4.28;2.10;;;15.90;81.50;;;;;;5018750;28;20052;-79
2023/10/20 02:40:51;;;;;;;3.70;1.98;;;15.90;81.50;;;;;;5001244;28;20034;-80
2023/10/20 02:43:18;;;;;;;5.25;2.45;;;15.90;82.00;;;;;;5015479;28;20068;-78
2023/10/20 02:45:54;;;;;;;5.55;1.92;;;16.00;81.70;;;;;;5006478;28;20080;-78
2023/10/20 02:48:22;;;;;;;4.13;1.98;;;15.90;81.50;;;;;;5013511;28;20045;-79
2023/10/20 02:50:49;;;;;;;3.67;1.73;;;16.00;81.60;;;;;;5015744;28;20022;-79
2023/10/20 02:53:15;;;;;;;5.00;1.90;;;15.90;81.50;;;;;;5024899;28;20135;-79
2023/10/20 02:55:42;;;;;;;3.38;2.25;;;15.90;81.50;;;;;;5011772;28;20076;-80
2023/10/20 02:58:12;;;;;;;3.25;1.80;;;15.90;81.50;;;;;;5020728;28;20241;-80
2023/10/20 03:00:45;;;;;;;4.28;1.77;;;15.90;81.50;;;;;;5018864;28;20037;-80
2023/10/20 03:03:12;;;;;;;7.45;1.77;;;15.90;81.50;;;;;;5015420;28;20034;-78
2023/10/20 03:05:38;;;;;;;2.55;1.45;;;15.90;81.50;;;;;;5035319;28;20298;-79
2023/10/20 03:08:05;;;;;;;2.85;1.42;;;15.90;81.50;;;;;;5019479;28;20574;-79
2023/10/20 03:10:31;;;;;;;4.82;1.42;;;15.90;81.50;;;;;;5019701;28;20144;-79
2023/10/20 03:12:57;;;;;;;4.82;1.95;;;15.90;81.50;;;;;;5027377;28;20116;-79
2023/10/20 03:15:23;;;;;;;2.20;1.30;;;15.90;81.50;;;;;;5004852;28;20064;-79
2023/10/20 03:17:49;;;;;;;3.17;1.38;;;15.90;81.50;;;;;;5015822;28;20536;-79
2023/10/20 03:20:17;;;;;;;2.47;1.27;;;15.90;81.50;;;;;;5020392;28;20036;-79
2023/10/20 03:22:47;;;;;;;1.80;1.33;;;15.90;81.60;;;;;;5021648;28;20033;-79
2023/10/20 03:25:13;;;;;;;2.58;1.10;;;15.90;81.60;;;;;;5018112;28;20228;-80
2023/10/20 03:27:40;;;;;;;1.77;1.10;;;15.90;81.60;;;;;;5017036;28;20021;-80
2023/10/20 03:30:07;;;;;;;3.47;1.17;;;15.90;81.60;;;;;;5023600;28;20042;-80
2023/10/20 03:32:33;;;;;;;2.28;1.20;;;15.80;81.40;;;;;;5024574;28;20070;-80
2023/10/20 03:34:59;;;;;;;1.73;1.13;;;15.90;81.60;;;;;;4999109;28;20513;-80
2023/10/20 03:37:25;;;;;;;2.55;1.13;;;15.90;81.60;;;;;;5015943;28;20889;-80
2023/10/20 03:39:52;;;;;;;1.13;0.75;;;15.90;81.70;;;;;;5015143;28;20512;-80
2023/10/20 03:42:18;;;;;;;1.77;1.08;;;15.90;81.70;;;;;;5013187;28;20033;-80
2023/10/20 03:44:47;;;;;;;1.42;1.10;;;15.90;81.70;;;;;;5007849;28;20025;-80
2023/10/20 03:47:16;;;;;;;1.98;0.80;;;15.90;81.70;;;;;;5025233;28;20033;-79
2023/10/20 03:49:42;;;;;;;1.42;0.75;;;15.90;81.70;;;;;;5019298;28;20052;-80
2023/10/20 03:52:11;;;;;;;0.93;0.80;;;15.80;81.50;;;;;;5019664;28;20543;-80
2023/10/20 03:54:38;;;;;;;0.73;0.73;;;15.90;81.70;;;;;;5004351;28;20596;-79
2023/10/20 03:57:04;;;;;;;1.45;0.82;;;15.90;81.60;;;;;;5017276;28;20152;-80
2023/10/20 03:59:34;;;;;;;1.00;0.68;;;15.90;81.60;;;;;;5021767;28;20128;-80
2023/10/20 04:02:01;;;;;;;2.22;0.70;;;15.90;81.60;;;;;;5017759;28;20635;-80
2023/10/20 04:04:27;;;;;;;3.40;0.80;;;15.90;81.60;;;;;;5022542;28;20036;-79
2023/10/20 04:06:53;;;;;;;1.90;1.02;;;15.90;81.60;;;;;;5025564;28;20026;-79
2023/10/20 04:09:20;;;;;;;1.42;0.80;;;15.80;81.40;;;;;;5022565;28;20041;-80
2023/10/20 04:11:46;;;;;;;2.15;0.60;;;15.80;81.40;;;;;;5023090;28;20159;-79
2023/10/20 04:14:12;;;;;;;1.42;0.60;;;15.80;81.40;;;;;;5012567;28;20037;-79
2023/10/20 04:16:41;;;;;;;1.58;0.80;;;15.80;81.40;;;;;;5021114;28;20381;-80
2023/10/20 04:19:14;;;;;;;0.93;0.63;;;15.80;81.40;;;;;;5018518;28;20021;-79
2023/10/20 04:21:43;;;;;;;2.80;0.60;;;15.80;81.40;;;;;;5011352;28;20026;-79
2023/10/20 04:24:10;;;;;;;0.77;0.50;;;15.80;81.40;;;;;;5004693;28;20033;-80
2023/10/20 04:26:44;;;;;;;1.92;0.73;;;15.80;81.40;;;;;;5012396;28;20033;-79
2023/10/20 04:41:52;;;;;;;1.15;0.93;;;15.80;81.40;;;;;;5012828;28;20041;-78
2023/10/20 04:51:13;;;;;;;1.23;1.13;;;15.70;81.20;;;;;;5020235;28;20038;-78
2023/10/20 04:59:31;;;;;;;1.17;0.88;;;15.70;81.20;;;;;;5016980;28;20034;-78
2023/10/20 05:02:10;;;;;;;2.03;1.15;;;15.70;81.20;;;;;;5017351;28;20132;-79
2023/10/20 05:04:36;;;;;;;2.47;1.55;;;15.70;81.20;;;;;;5016725;28;20096;-76
2023/10/20 05:07:05;;;;;;;2.38;1.90;;;15.60;81.10;;;;;;5020653;28;20033;-76
2023/10/20 05:09:33;;;;;;;2.00;1.85;;;15.60;81.00;;;;;;5001494;28;20110;-76
2023/10/20 05:11:59;;;;;;;2.60;2.33;;;15.60;81.10;;;;;;5020337;28;20033;-78
2023/10/20 05:14:27;;;;;;;2.95;2.75;;;15.60;81.00;;;;;;4998121;28;20084;-77
2023/10/20 05:16:55;;;;;;;4.15;3.75;;;15.60;81.10;;;;;;5011546;28;20061;-77
2023/10/20 05:19:21;;;;;;;4.38;3.95;;;15.60;81.10;;;;;;5018962;28;20517;-76
2023/10/20 05:21:47;;;;;;;4.97;4.47;;;15.60;81.10;;;;;;5020455;28;20028;-76
2023/10/20 05:24:13;;;;;;;5.75;5.25;;;15.50;80.90;;;;;;5014865;28;20048;-76
2023/10/20 05:26:40;;;;;;;6.25;5.65;;;15.50;81.00;;;;;;5017451;28;20061;-77
2023/10/20 05:29:07;;;;;;;9.00;6.85;;;15.50;81.00;;;;;;5008180;28;20582;-78
2023/10/20 05:31:34;;;;;;;8.45;7.25;;;15.50;81.00;;;;;;5012838;28;20108;-76
2023/10/20 05:34:01;;;;;;;8.38;7.57;;;15.50;81.10;;;;;;5011296;28;20067;-79
2023/10/20 05:36:26;;;;;;;8.00;7.10;;;15.50;81.10;;;;;;5010881;28;20041;-77
2023/10/20 05:38:52;;;;;;;7.88;7.18;;;15.50;81.20;;;;;;5014785;28;20060;-77
2023/10/20 05:41:18;;;;;;;8.13;7.32;;;15.50;81.20;;;;;;5011236;28;20244;-77
2023/10/20 05:43:44;;;;;;;8.65;7.85;;;15.50;81.20;;;;;;5014178;28;20197;-78
2023/10/20 05:46:17;;;;;;;13.75;8.25;;;15.40;81.10;;;;;;5010619;28;20734;-80
2023/10/20 05:48:44;;;;;;;7.88;7.07;;;15.50;81.80;;;;;;5014171;28;20040;-79
2023/10/20 05:51:11;;;;;;;7.97;7.18;;;15.50;81.30;;;;;;5011765;28;20022;-82
2023/10/20 05:53:37;;;;;;;8.18;7.45;;;15.40;81.10;;;;;;5016722;28;20033;-81
2023/10/20 05:56:04;;;;;;;7.80;7.00;;;15.40;81.20;;;;;;5009264;28;20040;-82
2023/10/20 05:58:33;;;;;;;11.48;8.35;;;15.50;81.40;;;;;;5017025;28;20060;-83
2023/10/20 06:01:11;;;;;;;8.88;7.97;;;15.40;81.20;;;;;;5006743;28;20508;-82
2023/10/20 06:03:40;;;;;;;8.18;7.40;;;15.40;81.20;;;;;;5012813;28;20037;-81
2023/10/20 06:06:06;;;;;;;13.77;8.30;;;15.40;81.20;;;;;;5014306;28;20052;-81
2023/10/20 06:08:32;;;;;;;10.68;7.88;;;15.40;81.20;;;;;;5018912;28;20048;-79
2023/10/20 06:11:05;;;;;;;14.45;10.02;;;15.40;81.20;;;;;;5012283;28;20061;-81
2023/10/20 06:13:32;;;;;;;12.32;9.70;;;15.40;81.20;;;;;;5012718;28;20037;-81
2023/10/20 06:16:09;;;;;;;10.32;8.20;;;15.40;81.20;;;;;;5016644;28;20026;-78
2023/10/20 06:18:41;;;;;;;10.32;9.13;;;15.40;81.30;;;;;;5018367;28;20040;-80
2023/10/20 06:21:16;;;;;;;11.20;9.15;;;15.40;81.30;;;;;;5021525;28;20072;-82
2023/10/20 06:23:43;;;;;;;7.95;7.13;;;15.40;81.40;;;;;;5018917;28;20041;-80
2023/10/20 06:26:10;;;;;;;9.10;7.47;;;15.30;81.20;;;;;;5010441;28;20367;-80
2023/10/20 06:28:36;;;;;;;10.93;6.85;;;15.30;81.30;;;;;;5016016;28;20030;-80
2023/10/20 06:31:27;;;;;;;8.45;5.65;;;15.30;81.40;;;;;;5011268;28;20128;-80
2023/10/20 06:34:17;;;;;;;8.77;5.95;;;15.30;81.50;;;;;;5013124;28;20030;-80
2023/10/20 06:36:48;;;;;;;9.88;5.03;;;15.30;81.50;;;;;;5017175;28;20079;-80
2023/10/20 06:39:15;;;;;;;4.15;3.63;;;15.30;81.50;;;;;;5015568;28;20069;-80
2023/10/20 06:41:41;;;;;;;5.10;2.88;;;15.40;81.70;;;;;;5012437;28;20075;-81
2023/10/20 06:44:14;;;;;;;5.78;3.03;;;15.40;81.70;;;;;;5003179;28;20061;-80
2023/10/20 06:46:40;;;;;;;5.68;2.75;;;15.40;81.70;;;;;;5022296;28;20533;-81
2023/10/20 06:49:07;;;;;;;2.53;2.33;;;15.40;81.80;;;;;;5023357;28;20068;-80
2023/10/20 06:51:37;;;;;;;3.78;2.38;;;15.40;81.80;;;;;;5023217;28;20056;-80
2023/10/20 06:54:03;;;;;;;2.40;2.00;;;15.40;81.80;;;;;;5017976;28;20136;-80
2023/10/20 06:56:29;;;;;;;3.63;2.00;;;15.40;81.80;;;;;;5014963;28;20498;-81
2023/10/20 06:58:55;;;;;;;1.95;1.75;;;15.40;81.80;;;;;;5021608;28;20213;-81
2023/10/20 07:01:21;;;;;;;3.15;2.30;;;15.40;81.80;;;;;;5014815;28;20037;-80
2023/10/20 07:03:47;;;;;;;3.25;2.53;;;15.40;81.80;;;;;;5012615;28;20082;-81
2023/10/20 07:06:13;;;;;;;3.88;2.67;;;15.40;81.80;;;;;;5016989;28;20119;-81
2023/10/20 07:08:39;;;;;;;3.38;2.20;;;15.40;81.80;;;;;;5022269;28;20803;-82
2023/10/20 07:11:05;;;;;;;4.00;2.88;;;15.40;81.80;;;;;;5017827;28;20268;-82
2023/10/20 07:13:32;;;;;;;4.72;2.05;;;15.40;81.80;;;;;;5014385;28;20022;-79
2023/10/20 07:15:58;;;;;;;2.58;2.25;;;15.40;81.90;;;;;;5019085;28;20038;-80
2023/10/20 07:18:24;;;;;;;3.00;2.13;;;15.40;81.90;;;;;;5013995;28;20044;-79
2023/10/20 07:20:52;;;;;;;2.65;1.98;;;15.40;81.90;;;;;;5021459;28;20278;-82
2023/10/20 07:23:18;;;;;;;4.93;2.38;;;15.40;81.90;;;;;;5016504;28;20041;-81
2023/10/20 07:25:44;;;;;;;2.45;2.10;;;15.40;82.00;;;;;;5015167;28;20087;-81
2023/10/20 07:28:11;;;;;;;2.00;1.90;;;15.40;82.00;;;;;;5012072;28;20037;-81
2023/10/20 07:30:37;;;;;;;4.05;2.47;;;15.40;82.00;;;;;;5011739;28;20048;-81
2023/10/20 07:33:03;;;;;;;5.10;2.90;;;15.40;82.10;;;;;;5020116;28;20044;-81
2023/10/20 07:35:30;;;;;;;4.80;2.63;;;15.50;82.20;;;;;;5013081;28;20037;-82
2023/10/20 07:37:57;;;;;;;2.90;2.35;;;15.40;82.00;;;;;;5010564;28;20040;-81
2023/10/20 07:40:27;;;;;;;2.90;2.42;;;15.50;82.30;;;;;;5008493;28;20125;-80
2023/10/20 07:42:53;;;;;;;2.53;2.33;;;15.40;82.10;;;;;;5013868;28;20161;-80
2023/10/20 07:45:19;;;;;;;3.40;2.58;;;15.50;82.30;;;;;;5019729;28;20049;-80
2023/10/20 07:47:46;;;;;;;3.30;2.50;;;15.50;82.30;;;;;;5014903;28;20532;-80
2023/10/20 07:50:12;;;;;;;3.83;2.70;;;15.50;82.80;;;;;;5023032;28;20050;-80
2023/10/20 07:52:38;;;;;;;2.47;2.20;;;15.50;82.30;;;;;;5021480;28;20485;-80
2023/10/20 07:55:06;;;;;;;4.00;2.40;;;15.50;82.30;;;;;;5007666;28;20503;-80
2023/10/20 07:57:32;;;;;;;3.38;2.65;;;15.40;82.10;;;;;;5016246;28;20037;-81
2023/10/20 07:59:58;;;;;;;3.30;2.33;;;15.50;82.30;;;;;;5008602;28;20246;-80
2023/10/20 08:02:24;;;;;;;4.40;2.35;;;15.50;82.30;;;;;;5008974;28;20184;-81
2023/10/20 08:04:50;;;;;;;4.20;2.50;;;15.50;82.30;;;;;;5013619;28;20032;-81
2023/10/20 08:07:16;;;;;;;3.72;1.88;;;15.50;82.30;;;;;;5012831;28;20531;-80
2023/10/20 08:09:46;;;;;;;2.92;2.22;;;15.50;82.30;;;;;;5015324;28;20040;-80
2023/10/20 08:12:13;;;;;;;7.55;2.05;;;15.50;82.30;;;;;;5018181;28;20241;-80
2023/10/20 08:14:40;;;;;;;2.45;2.08;;;15.50;82.30;;;;;;5018261;28;20282;-80
2023/10/20 08:17:07;;;;;;;3.22;1.65;;;15.50;82.30;;;;;;5019251;28;20045;-80
2023/10/20 08:19:34;;;;;;;2.35;1.50;;;15.60;82.50;;;;;;5021020;28;20484;-81
2023/10/20 08:22:01;;;;;;;2.13;1.55;;;15.60;82.50;;;;;;5019755;28;20117;-81
2023/10/20 08:24:31;;;;;;;5.07;1.45;;;15.60;82.50;;;;;;5015583;28;20049;-79
2023/10/20 08:26:57;;;;;;;1.80;1.13;;;15.60;82.50;;;;;;5020686;28;20044;-80
2023/10/20 08:29:24;;;;;;;2.35;1.10;;;15.50;82.30;;;;;;5025914;28;20408;-80
2023/10/20 08:31:51;;;;;;;1.95;0.90;;;15.60;82.50;;;;;;5018567;28;20040;-80
2023/10/20 08:34:18;;;;;;;2.00;1.17;;;15.60;82.50;;;;;;5017631;28;20066;-80
2023/10/20 08:36:45;;;;;;;2.28;1.10;;;15.60;82.50;;;;;;5013037;28;20184;-80
2023/10/20 08:39:20;;;;;;;0.73;0.70;;;15.60;82.50;;;;;;5014677;28;20059;-80
2023/10/20 08:41:49;;;;;;;2.95;1.58;;;15.60;82.50;;;;;;5006094;28;20084;-78
2023/10/20 08:44:19;;;;;;;0.85;0.85;;;15.70;82.60;;;;;;5020230;28;20051;-81
2023/10/20 08:46:49;;;;;;;1.48;0.85;;;15.70;82.60;;;;;;5010939;28;20496;-81
2023/10/20 08:49:18;;;;;;;1.55;0.75;;;15.80;82.70;;;;;;5013998;28;20702;-80
2023/10/20 08:51:48;;;;;;;3.30;1.13;;;15.80;82.70;;;;;;5011201;28;20412;-85
2023/10/20 08:54:15;;;;;;;2.13;1.25;;;15.90;82.80;;;;;;5009308;28;20094;-82
2023/10/20 08:56:42;;;;;;;2.58;1.20;;;15.90;82.70;;;;;;5008816;28;20091;-82
2023/10/20 08:59:08;;;;;;;1.27;0.70;;;16.00;82.80;;;;;;4996961;28;20041;-81
2023/10/20 09:01:35;;;;;;;1.90;1.00;;;16.10;82.90;;;;;;5007598;28;20041;-78
2023/10/20 09:04:02;;;;;;;2.90;1.30;;;16.10;82.70;;;;;;5048557;28;20177;-79
2023/10/20 09:06:30;;;;;;;1.98;1.33;;;16.20;82.70;;;;;;5014175;28;20032;-81
2023/10/20 09:08:58;;;;;;;5.90;1.55;;;16.40;82.90;;;;;;5011941;28;20458;-80
2023/10/20 09:11:30;;;;;;;7.45;2.25;;;16.50;82.90;;;;;;5015790;28;20041;-81
2023/10/20 09:13:58;;;;;;;15.90;4.13;;;16.60;82.80;;;;;;5015250;28;20076;-81
2023/10/20 09:16:26;;;;;;;15.45;4.55;;;16.80;82.90;;;;;;5029407;28;20068;-80
2023/10/20 09:18:53;;;;;;;21.13;5.18;;;17.00;83.00;;;;;;5020898;28;20035;-81
2023/10/20 09:21:21;;;;;;;18.42;5.05;;;17.10;82.80;;;;;;5015037;28;20072;-81
2023/10/20 09:23:54;;;;;;;26.55;6.10;;;17.30;82.80;;;;;;5009320;28;20387;-81
2023/10/20 09:26:21;;;;;;;16.42;4.75;;;17.40;82.60;;;;;;5010964;28;20032;-82
2023/10/20 09:28:49;;;;;;;12.30;4.28;;;17.50;82.40;;;;;;5016208;28;20158;-77
2023/10/20 09:31:20;;;;;;;12.57;3.75;;;17.60;82.30;;;;;;5002705;28;20374;-77
2023/10/20 09:33:46;;;;;;;16.27;3.13;;;17.70;82.20;;;;;;5009528;28;20381;-77
2023/10/20 09:36:13;;;;;;;8.25;4.13;;;17.70;82.00;;;;;;5005751;28;20057;-77
2023/10/20 09:38:39;;;;;;;6.80;2.33;;;17.80;82.10;;;;;;5009524;28;20041;-77
2023/10/20 09:41:11;;;;;;;12.40;3.28;;;17.80;81.90;;;;;;5007933;28;20030;-77
2023/10/20 09:44:02;;;;;;;6.50;3.22;;;17.90;82.00;;;;;;5014885;28;20543;-77
2023/10/20 09:46:42;;;;;;;9.27;2.92;;;17.90;81.70;;;;;;5012953;28;20034;-77
2023/10/20 09:49:15;;;;;;;5.65;1.92;;;17.90;81.60;;;;;;5014725;28;20056;-77
2023/10/20 09:51:45;;;;;;;3.35;1.65;;;18.00;81.60;;;;;;5015310;28;20028;-77
2023/10/20 09:54:14;;;;;;;4.13;1.70;;;18.00;81.40;;;;;;5001665;28;20364;-77
2023/10/20 09:56:45;;;;;;;5.55;1.00;;;18.00;81.30;;;;;;5017964;28;20044;-77
2023/10/20 09:59:23;;;;;;;2.88;1.10;;;18.00;81.10;;;;;;5018204;28;20432;-77
2023/10/20 10:01:52;;;;;;;3.60;1.52;;;18.10;81.10;;;;;;5045276;28;20034;-77
2023/10/20 10:04:29;;;;;;;6.15;2.60;;;18.10;81.00;;;;;;5014023;28;20036;-77
2023/10/20 10:06:55;;;;;;;2.65;1.10;;;18.10;80.90;;;;;;5020822;28;20385;-77
2023/10/20 10:09:22;;;;;;;4.32;1.40;;;18.10;80.80;;;;;;5020539;28;20042;-77
2023/10/20 10:11:49;;;;;;;4.15;1.73;;;18.10;80.70;;;;;;5021244;28;20057;-77
2023/10/20 10:14:20;;;;;;;2.80;1.10;;;18.20;81.30;;;;;;5018204;28;20473;-77
2023/10/20 10:16:50;;;;;;;3.03;1.63;;;18.10;80.40;;;;;;5022999;28;20040;-77
2023/10/20 10:19:17;;;;;;;4.72;1.40;;;18.10;80.30;;;;;;5012690;28;20034;-77
2023/10/20 10:21:51;;;;;;;3.33;1.50;;;18.10;80.30;;;;;;5011283;28;20099;-76
2023/10/20 10:24:18;;;;;;;3.15;1.35;;;18.20;80.40;;;;;;5011583;28;20029;-77
2023/10/20 10:26:52;;;;;;;3.80;1.63;;;18.10;80.10;;;;;;5002181;28;20026;-77
2023/10/20 10:29:38;;;;;;;2.28;1.00;;;18.20;80.20;;;;;;5025039;28;20152;-78
2023/10/20 10:32:12;;;;;;;3.67;1.33;;;18.20;80.10;;;;;;4992292;28;20045;-77
2023/10/20 10:34:46;;;;;;;4.80;1.20;;;18.20;80.00;;;;;;5023769;28;20407;-77
2023/10/20 10:37:12;;;;;;;2.28;1.00;;;18.20;79.90;;;;;;5018873;28;20044;-77
2023/10/20 10:39:38;;;;;;;4.13;1.30;;;18.20;79.90;;;;;;5020803;28;20049;-77
2023/10/20 10:42:05;;;;;;;5.88;1.40;;;18.20;79.80;;;;;;5014482;28;20548;-77
2023/10/20 10:44:36;;;;;;;2.25;0.98;;;18.20;79.60;;;;;;5019000;28;20072;-77
2023/10/20 10:47:04;;;;;;;3.88;1.15;;;18.30;79.70;;;;;;5021664;28;20064;-76
2023/10/20 10:49:34;;;;;;;3.50;1.15;;;18.30;79.60;;;;;;5027113;28;20041;-77
2023/10/20 10:52:07;;;;;;;3.40;1.20;;;18.30;79.50;;;;;;5015251;28;20052;-77
2023/10/20 10:54:36;;;;;;;4.88;1.60;;;18.30;79.30;;;;;;5017308;28;20293;-77
2023/10/20 10:57:05;;;;;;;8.75;3.25;;;18.40;79.40;;;;;;5019894;28;20487;-76
2023/10/20 10:59:32;;;;;;;5.00;1.92;;;18.40;79.20;;;;;;5018156;28;20396;-77
2023/10/20 11:02:02;;;;;;;9.10;2.63;;;18.50;79.20;;;;;;5015412;28;20455;-77
2023/10/20 11:04:33;;;;;;;4.65;1.90;;;18.50;79.00;;;;;;5022957;28;20041;-77
2023/10/20 11:06:59;;;;;;;8.00;2.20;;;18.50;78.90;;;;;;5002390;28;20045;-77
2023/10/20 11:09:29;;;;;;;4.28;1.95;;;18.70;79.10;;;;;;5020324;28;20451;-77
2023/10/20 11:11:56;;;;;;;5.82;2.40;;;18.70;78.90;;;;;;5014380;28;20148;-77
2023/10/20 11:14:25;;;;;;;6.80;2.33;;;18.80;78.90;;;;;;5022493;28;20057;-77
2023/10/20 11:16:51;;;;;;;8.82;2.70;;;18.80;79.20;;;;;;5016831;28;20032;-77
2023/10/20 11:19:17;;;;;;;7.90;2.55;;;18.90;78.60;;;;;;5018098;28;20095;-77
2023/10/20 11:21:48;;;;;;;5.75;2.30;;;18.90;78.40;;;;;;5018895;28;20485;-77
2023/10/20 11:24:51;;;;;;;3.88;2.38;;;19.00;78.40;;;;;;5021864;28;20033;-79
2023/10/20 11:27:17;;;;;;;6.70;3.05;;;19.10;78.30;;;;;;5015851;28;20037;-78
2023/10/20 11:29:45;;;;;;;6.38;2.90;;;19.10;78.20;;;;;;5019834;28;20558;-78
2023/10/20 11:32:14;;;;;;;5.82;2.67;;;19.20;78.20;;;;;;5017779;28;20036;-78
2023/10/20 11:34:40;;;;;;;7.65;3.10;;;19.30;78.20;;;;;;5019581;28;20061;-77
2023/10/20 11:37:08;;;;;;;6.30;2.17;;;19.30;78.00;;;;;;5017451;28;20037;-78
2023/10/20 11:39:36;;;;;;;5.45;2.20;;;19.30;77.80;;;;;;5017741;28;20053;-77
2023/10/20 11:42:03;;;;;;;8.25;2.78;;;19.30;77.70;;;;;;5012065;28;20091;-78
2023/10/20 11:44:30;;;;;;;6.60;2.90;;;19.30;77.60;;;;;;5019910;28;20038;-78
2023/10/20 11:46:57;;;;;;;5.05;2.72;;;19.30;78.00;;;;;;5027129;28;20021;-77
2023/10/20 11:49:26;;;;;;;6.65;2.58;;;19.30;77.50;;;;;;5021662;28;20041;-78
2023/10/20 11:51:55;;;;;;;8.77;2.65;;;19.20;77.30;;;;;;5028078;28;20036;-77
2023/10/20 11:54:21;;;;;;;6.95;2.90;;;19.20;77.20;;;;;;5021154;28;20156;-78
2023/10/20 11:56:47;;;;;;;5.18;2.28;;;19.10;77.10;;;;;;5023562;28;20036;-78
2023/10/20 11:59:14;;;;;;;5.72;2.10;;;19.10;77.10;;;;;;5015544;28;20582;-77
2023/10/20 12:01:40;;;;;;;5.85;2.05;;;19.10;77.10;;;;;;5010693;28;20512;-77
2023/10/20 12:04:08;;;;;;;5.45;1.95;;;19.10;77.10;;;;;;5012480;28;20045;-77
2023/10/20 12:06:38;;;;;;;3.55;1.77;;;19.00;76.90;;;;;;5021873;28;20079;-78
2023/10/20 12:09:08;;;;;;;4.63;1.77;;;19.00;76.90;;;;;;5020920;28;20075;-78
2023/10/20 12:11:36;;;;;;;4.55;1.83;;;19.10;76.90;;;;;;5009601;28;20247;-77
2023/10/20 12:14:03;;;;;;;4.38;1.60;;;19.10;76.80;;;;;;5014631;28;20094;-77
2023/10/20 12:16:30;;;;;;;4.88;1.80;;;19.10;76.70;;;;;;5013063;28;20129;-77
2023/10/20 12:19:01;;;;;;;2.85;1.52;;;19.10;76.50;;;;;;5016011;28;20400;-77
2023/10/20 12:21:29;;;;;;;3.63;1.58;;;19.20;76.50;;;;;;5014007;28;20038;-77
2023/10/20 12:23:56;;;;;;;1.95;1.23;;;19.20;76.40;;;;;;4993380;28;20293;-78
2023/10/20 12:26:22;;;;;;;4.22;1.58;;;19.20;76.30;;;;;;5014441;28;20182;-78
2023/10/20 12:28:50;;;;;;;4.95;1.38;;;19.20;76.20;;;;;;5013885;28;20669;-77
2023/10/20 12:31:17;;;;;;;3.30;1.27;;;19.20;76.10;;;;;;5012877;28;20029;-77
2023/10/20 12:33:44;;;;;;;4.45;1.50;;;19.20;76.00;;;;;;5028673;28;20126;-78
2023/10/20 12:36:16;;;;;;;3.05;1.40;;;19.30;76.10;;;;;;5010029;28;20033;-78
2023/10/20 12:38:45;;;;;;;3.08;1.23;;;19.30;76.00;;;;;;5012964;28;20608;-78
2023/10/20 12:41:11;;;;;;;2.53;1.42;;;19.30;75.90;;;;;;5008191;28;20037;-77
2023/10/20 12:43:37;;;;;;;2.92;1.20;;;19.30;75.80;;;;;;5025403;28;20124;-77
2023/10/20 12:46:04;;;;;;;1.83;1.25;;;19.40;75.90;;;;;;5020010;28;20029;-78
2023/10/20 12:48:30;;;;;;;1.30;1.10;;;19.40;75.70;;;;;;5019735;28;20481;-78
2023/10/20 12:50:59;;;;;;;1.80;1.20;;;19.50;75.70;;;;;;5021838;28;20041;-77
2023/10/20 12:53:25;;;;;;;2.88;0.90;;;19.50;75.60;;;;;;5019883;28;20033;-77
2023/10/20 12:55:54;;;;;;;1.35;0.90;;;19.60;75.70;;;;;;5018527;28;20033;-78
2023/10/20 12:58:20;;;;;;;3.70;1.00;;;19.60;75.50;;;;;;5014330;28;20037;-78
2023/10/20 13:00:46;;;;;;;3.13;1.50;;;19.60;75.50;;;;;;5015275;28;20494;-77
2023/10/20 13:03:12;;;;;;;2.42;1.10;;;19.60;75.40;;;;;;4997591;28;20036;-77
2023/10/20 13:05:38;;;;;;;2.22;0.93;;;19.60;75.30;;;;;;5016345;28;20033;-78
2023/10/20 13:08:04;;;;;;;2.40;1.15;;;19.60;75.30;;;;;;5014722;28;20124;-78
2023/10/20 13:10:30;;;;;;;2.95;1.10;;;19.60;75.20;;;;;;5016268;28;20048;-78
2023/10/20 13:12:57;;;;;;;2.45;1.40;;;19.60;75.20;;;;;;5023431;28;20313;-78
2023/10/20 13:15:24;;;;;;;3.03;1.02;;;19.60;75.10;;;;;;5017456;28;20049;-77